createdAt,value
2018-11-11T00:01:32.215Z,95513.57
2018-11-11T00:03:58.926Z,95513.34
2018-11-11T00:06:25.626Z,95519.42
2018-11-11T00:08:52.264Z,95518.78
2018-11-11T00:11:18.971Z,95516.13
2018-11-11T00:13:45.713Z,95517.55
2018-11-11T00:16:12.416Z,95520.05
2018-11-11T00:18:39.129Z,95520.30
2018-11-11T00:21:05.881Z,95519.06
2018-11-11T00:23:33.972Z,95523.23
2018-11-11T00:26:00.712Z,95525.13
2018-11-11T00:28:28.798Z,95516.44
2018-11-11T00:30:57.001Z,95514.54
2018-11-11T00:33:22.125Z,95517.70
2018-11-11T00:35:48.937Z,95514.95
2018-11-11T00:38:15.588Z,95528.60
2018-11-11T00:40:42.362Z,95524.17
2018-11-11T00:43:09.075Z,95523.42
2018-11-11T00:45:35.728Z,95528.34
2018-11-11T00:48:02.383Z,95523.19
2018-11-11T00:50:29.168Z,95520.03
2018-11-11T00:52:55.966Z,95522.94
2018-11-11T00:55:22.739Z,95523.97
2018-11-11T00:57:49.455Z,95517.12
2018-11-11T01:00:16.143Z,95519.27
2018-11-11T01:02:42.858Z,95527.13
2018-11-11T01:05:09.577Z,95528.49
2018-11-11T01:07:36.262Z,95530.55
2018-11-11T01:10:02.970Z,95523.69
2018-11-11T01:12:29.627Z,95522.55
2018-11-11T01:14:56.377Z,95516.77
2018-11-11T01:17:23.120Z,95522.45
2018-11-11T01:19:49.824Z,95520.69
2018-11-11T01:22:16.625Z,95519.41
2018-11-11T01:24:43.366Z,95517.04
2018-11-11T01:27:10.077Z,95511.98
2018-11-11T01:29:36.837Z,95516.53
2018-11-11T01:32:03.561Z,95510.09
2018-11-11T01:34:30.207Z,95520.86
2018-11-11T01:36:58.002Z,95516.05
2018-11-11T01:39:24.681Z,95520.34
2018-11-11T01:41:53.427Z,95521.98
2018-11-11T01:44:18.023Z,95520.73
2018-11-11T01:46:44.773Z,95524.80
2018-11-11T01:49:12.522Z,95528.84
2018-11-11T01:51:38.180Z,95525.55
2018-11-11T01:54:04.883Z,95530.48
2018-11-11T01:56:33.195Z,95526.81
2018-11-11T01:58:58.267Z,95532.53
2018-11-11T02:01:24.918Z,95536.57
2018-11-11T02:03:51.648Z,95533.79
2018-11-11T02:06:18.424Z,95534.17
2018-11-11T02:08:45.086Z,95536.82
2018-11-11T02:11:11.806Z,95538.59
2018-11-11T02:13:38.467Z,95543.81
2018-11-11T02:16:05.228Z,95545.05
2018-11-11T02:18:31.889Z,95537.63
2018-11-11T02:20:58.566Z,95537.62
2018-11-11T02:23:25.247Z,95530.30
2018-11-11T02:25:53.230Z,95538.26
2018-11-11T02:28:18.694Z,95536.11
2018-11-11T02:30:45.489Z,95536.87
2018-11-11T02:33:12.131Z,95535.61
2018-11-11T02:35:38.776Z,95543.66
2018-11-11T02:38:05.480Z,95543.44
2018-11-11T02:40:32.128Z,95542.42
2018-11-11T02:42:58.780Z,95544.20
2018-11-11T02:45:25.597Z,95539.90
2018-11-11T02:47:52.297Z,95546.87
2018-11-11T02:50:18.984Z,95541.54
2018-11-11T02:52:48.863Z,95541.54
2018-11-11T02:55:18.386Z,95543.33
2018-11-11T02:57:45.099Z,95542.83
2018-11-11T03:00:11.826Z,95544.47
2018-11-11T03:02:38.563Z,95541.43
2018-11-11T03:05:05.303Z,95550.42
2018-11-11T03:07:31.957Z,95546.85
2018-11-11T03:09:58.664Z,95543.74
2018-11-11T03:12:25.318Z,95545.42
2018-11-11T03:14:52.090Z,95541.52
2018-11-11T03:17:18.750Z,95543.27
2018-11-11T03:19:45.447Z,95546.67
2018-11-11T03:22:14.228Z,95549.56
2018-11-11T03:24:38.801Z,95549.01
2018-11-11T03:27:05.520Z,95552.66
2018-11-11T03:29:32.207Z,95553.91
2018-11-11T03:32:00.198Z,95550.73
2018-11-11T03:34:25.554Z,95550.10
2018-11-11T03:36:52.195Z,95551.34
2018-11-11T03:39:18.950Z,95551.21
2018-11-11T03:41:45.700Z,95554.25
2018-11-11T03:44:12.483Z,95554.10
2018-11-11T03:46:39.136Z,95549.05
2018-11-11T03:49:05.961Z,95549.05
2018-11-11T03:51:32.617Z,95559.67
2018-11-11T03:53:59.391Z,95557.63
2018-11-11T03:56:26.134Z,95559.01
2018-11-11T03:58:53.034Z,95558.13
2018-11-11T04:01:19.608Z,95555.73
2018-11-11T04:03:46.330Z,95559.50
2018-11-11T04:06:13.047Z,95568.37
2018-11-11T04:08:39.714Z,95570.62
2018-11-11T04:11:06.413Z,95566.22
2018-11-11T04:13:33.095Z,95563.67
2018-11-11T04:15:59.812Z,95567.36
2018-11-11T04:18:26.554Z,95571.15
2018-11-11T04:20:53.259Z,95576.20
2018-11-11T04:23:19.918Z,95577.34
2018-11-11T04:25:46.620Z,95571.65
2018-11-11T04:28:13.294Z,95580.62
2018-11-11T04:30:39.965Z,95580.50
2018-11-11T04:33:06.719Z,95581.13
2018-11-11T04:35:33.359Z,95579.36
2018-11-11T04:38:00.115Z,95583.66
2018-11-11T04:40:26.761Z,95577.47
2018-11-11T04:42:53.419Z,95582.64
2018-11-11T04:45:20.142Z,95580.50
2018-11-11T04:47:50.113Z,95580.63
2018-11-11T04:50:18.448Z,95589.22
2018-11-11T04:52:43.471Z,95584.14
2018-11-11T04:55:11.383Z,95582.64
2018-11-11T04:57:36.893Z,95589.22
2018-11-11T05:00:03.634Z,95596.27
2018-11-11T05:02:30.418Z,95593.01
2018-11-11T05:04:57.196Z,95592.38
2018-11-11T05:07:23.903Z,95593.61
2018-11-11T05:09:50.597Z,95590.84
2018-11-11T05:12:17.254Z,95594.25
2018-11-11T05:14:44.164Z,95597.53
2018-11-11T05:17:10.876Z,95604.23
2018-11-11T05:19:37.514Z,95602.11
2018-11-11T05:22:04.268Z,95606.13
2018-11-11T05:24:31.102Z,95609.66
2018-11-11T05:26:57.769Z,95615.45
2018-11-11T05:29:24.511Z,95612.17
2018-11-11T05:31:51.186Z,95623.50
2018-11-11T05:34:17.817Z,95625.00
2018-11-11T05:36:44.529Z,95627.28
2018-11-11T05:39:11.301Z,95629.30
2018-11-11T05:41:37.908Z,95631.92
2018-11-11T05:44:04.612Z,95637.22
2018-11-11T05:46:31.254Z,95639.24
2018-11-11T05:48:59.183Z,95633.56
2018-11-11T05:51:24.708Z,95640.36
2018-11-11T05:53:51.373Z,95637.85
2018-11-11T05:56:18.157Z,95643.77
2018-11-11T05:58:44.900Z,95646.83
2018-11-11T06:01:11.611Z,95649.47
2018-11-11T06:03:38.355Z,95653.59
2018-11-11T06:06:05.095Z,95650.55
2018-11-11T06:08:31.754Z,95653.97
2018-11-11T06:10:58.531Z,95652.19
2018-11-11T06:13:28.214Z,95646.33
2018-11-11T06:15:54.924Z,95648.59
2018-11-11T06:18:21.644Z,95653.62
2018-11-11T06:20:49.696Z,95658.16
2018-11-11T06:23:18.044Z,95662.66
2018-11-11T06:25:44.850Z,95665.66
2018-11-11T06:28:11.494Z,95663.58
2018-11-11T06:30:39.900Z,95667.96
2018-11-11T06:33:08.080Z,95672.02
2018-11-11T06:35:34.761Z,95676.64
2018-11-11T06:38:04.905Z,95682.72
2018-11-11T06:40:31.682Z,95677.66
2018-11-11T06:42:58.334Z,95679.13
2018-11-11T06:45:25.014Z,95682.92
2018-11-11T06:47:51.799Z,95689.23
2018-11-11T06:50:18.420Z,95691.63
2018-11-11T06:52:45.186Z,95698.22
2018-11-11T06:55:11.850Z,95709.86
2018-11-11T06:57:38.597Z,95709.84
2018-11-11T07:00:05.263Z,95703.02
2018-11-11T07:02:31.996Z,95697.94
2018-11-11T07:04:59.994Z,95703.50
2018-11-11T07:07:25.455Z,95700.31
2018-11-11T07:09:52.183Z,95699.78
2018-11-11T07:12:20.271Z,95704.59
2018-11-11T07:14:45.609Z,95701.65
2018-11-11T07:17:12.367Z,95705.07
2018-11-11T07:19:39.062Z,95699.24
2018-11-11T07:22:05.781Z,95694.28
2018-11-11T07:24:33.856Z,95697.29
2018-11-11T07:26:59.212Z,95697.64
2018-11-11T07:29:27.142Z,95697.03
2018-11-11T07:31:52.583Z,95700.93
2018-11-11T07:34:19.345Z,95702.20
2018-11-11T07:36:46.076Z,95704.32
2018-11-11T07:39:12.733Z,95698.91
2018-11-11T07:41:41.400Z,95705.97
2018-11-11T07:44:06.071Z,95712.80
2018-11-11T07:46:32.778Z,95718.34
2018-11-11T07:48:59.492Z,95721.42
2018-11-11T07:51:26.161Z,95720.66
2018-11-11T07:53:52.903Z,95713.41
2018-11-11T07:56:19.711Z,95717.43
2018-11-11T07:58:46.361Z,95715.94
2018-11-11T08:01:14.417Z,95717.59
2018-11-11T08:03:39.734Z,95723.00
2018-11-11T08:06:06.373Z,95722.88
2018-11-11T08:08:33.112Z,95726.17
2018-11-11T08:10:59.823Z,95726.80
2018-11-11T08:13:26.458Z,95720.34
2018-11-11T08:15:53.183Z,95718.67
2018-11-11T08:18:19.983Z,95717.43
2018-11-11T08:20:46.677Z,95731.84
2018-11-11T08:23:13.362Z,95740.23
2018-11-11T08:25:40.067Z,95732.98
2018-11-11T08:28:06.791Z,95733.36
2018-11-11T08:30:33.496Z,95733.48
2018-11-11T08:33:00.189Z,95732.45
2018-11-11T08:35:26.909Z,95728.64
2018-11-11T08:37:53.656Z,95730.92
2018-11-11T08:40:20.317Z,95726.87
2018-11-11T08:42:47.501Z,95729.27
2018-11-11T08:45:14.238Z,95729.50
2018-11-11T08:47:40.947Z,95728.73
2018-11-11T08:50:07.699Z,95725.83
2018-11-11T08:52:34.503Z,95726.45
2018-11-11T08:55:01.153Z,95728.99
2018-11-11T08:57:27.832Z,95726.30
2018-11-11T08:59:56.326Z,95727.44
2018-11-11T09:02:21.773Z,95719.45
2018-11-11T09:04:48.481Z,95719.81
2018-11-11T09:07:15.151Z,95728.30
2018-11-11T09:09:41.896Z,95722.34
2018-11-11T09:12:08.598Z,95723.70
2018-11-11T09:14:35.253Z,95717.87
2018-11-11T09:17:01.938Z,95717.77
2018-11-11T09:19:28.631Z,95716.22
2018-11-11T09:21:58.226Z,95721.67
2018-11-11T09:24:24.922Z,95720.28
2018-11-11T09:26:51.635Z,95718.98
2018-11-11T09:29:18.288Z,95721.55
2018-11-11T09:31:45.092Z,95719.48
2018-11-11T09:34:11.795Z,95713.41
2018-11-11T09:36:38.447Z,95713.74
2018-11-11T09:39:05.807Z,95712.36
2018-11-11T09:41:32.468Z,95710.20
2018-11-11T09:43:59.116Z,95710.45
2018-11-11T09:46:25.795Z,95714.47
2018-11-11T09:48:52.516Z,95711.68
2018-11-11T09:51:19.223Z,95715.95
2018-11-11T09:53:45.964Z,95715.95
2018-11-11T09:56:12.748Z,95704.80
2018-11-11T09:58:39.482Z,95699.09
2018-11-11T10:01:07.483Z,95697.67
2018-11-11T10:03:32.840Z,95701.44
2018-11-11T10:05:59.657Z,95700.17
2018-11-11T10:08:26.316Z,95702.20
2018-11-11T10:10:53.057Z,95700.30
2018-11-11T10:13:21.492Z,95696.96
2018-11-11T10:15:46.535Z,95700.51
2018-11-11T10:18:13.258Z,95702.28
2018-11-11T10:20:39.989Z,95698.98
2018-11-11T10:23:06.616Z,95698.98
2018-11-11T10:25:34.629Z,95698.19
2018-11-11T10:28:00.014Z,95691.22
2018-11-11T10:30:26.670Z,95696.92
2018-11-11T10:32:53.378Z,95690.29
2018-11-11T10:35:20.026Z,95686.31
2018-11-11T10:37:46.771Z,95684.41
2018-11-11T10:40:13.914Z,95679.00
2018-11-11T10:42:40.593Z,95675.90
2018-11-11T10:45:07.305Z,95670.70
2018-11-11T10:47:34.985Z,95671.51
2018-11-11T10:50:00.744Z,95671.22
2018-11-11T10:52:27.391Z,95671.64
2018-11-11T10:54:54.123Z,95665.55
2018-11-11T10:57:20.766Z,95665.71
2018-11-11T10:59:47.425Z,95657.61
2018-11-11T11:02:14.140Z,95669.73
2018-11-11T11:04:40.786Z,95662.64
2018-11-11T11:07:07.429Z,95662.08
2018-11-11T11:09:34.149Z,95660.56
2018-11-11T11:12:03.564Z,95659.33
2018-11-11T11:14:30.206Z,95662.27
2018-11-11T11:16:57.015Z,95661.98
2018-11-11T11:19:23.662Z,95655.19
2018-11-11T11:21:50.306Z,95659.79
2018-11-11T11:24:19.168Z,95658.58
2018-11-11T11:26:43.693Z,95655.70
2018-11-11T11:29:10.402Z,95653.51
2018-11-11T11:31:37.160Z,95655.75
2018-11-11T11:34:03.750Z,95664.84
2018-11-11T11:36:30.417Z,95654.07
2018-11-11T11:38:57.115Z,95651.15
2018-11-11T11:41:23.796Z,95649.59
2018-11-11T11:43:50.503Z,95643.77
2018-11-11T11:46:17.226Z,95641.19
2018-11-11T11:48:43.907Z,95641.81
2018-11-11T11:51:10.557Z,95642.19
2018-11-11T11:53:37.356Z,95642.58
2018-11-11T11:56:04.000Z,95637.59
2018-11-11T11:58:30.648Z,95634.16
2018-11-11T12:00:57.439Z,95633.70
2018-11-11T12:03:24.082Z,95632.18
2018-11-11T12:05:50.796Z,95631.97
2018-11-11T12:08:17.482Z,95637.89
2018-11-11T12:10:44.134Z,95633.36
2018-11-11T12:13:10.777Z,95632.98
2018-11-11T12:15:37.549Z,95632.78
2018-11-11T12:18:04.144Z,95635.01
2018-11-11T12:20:30.845Z,95633.45
2018-11-11T12:22:59.545Z,95630.95
2018-11-11T12:25:26.264Z,95629.81
2018-11-11T12:27:53.066Z,95634.00
2018-11-11T12:30:19.808Z,95632.09
2018-11-11T12:32:46.484Z,95630.36
2018-11-11T12:35:13.880Z,95624.28
2018-11-11T12:37:40.658Z,95623.01
2018-11-11T12:40:07.465Z,95624.31
2018-11-11T12:42:36.145Z,95626.05
2018-11-11T12:45:00.641Z,95627.23
2018-11-11T12:47:27.346Z,95634.03
2018-11-11T12:49:53.995Z,95628.84
2018-11-11T12:52:20.646Z,95635.55
2018-11-11T12:54:47.522Z,95635.97
2018-11-11T12:57:14.097Z,95636.35
2018-11-11T12:59:40.804Z,95634.08
2018-11-11T13:02:07.545Z,95635.84
2018-11-11T13:04:34.293Z,95631.79
2018-11-11T13:07:00.954Z,95629.52
2018-11-11T13:09:27.603Z,95631.80
2018-11-11T13:11:54.360Z,95631.80
2018-11-11T13:14:21.061Z,95623.56
2018-11-11T13:16:47.777Z,95623.85
2018-11-11T13:19:14.476Z,95629.93
2018-11-11T13:21:41.200Z,95626.00
2018-11-11T13:24:07.866Z,95621.56
2018-11-11T13:26:34.514Z,95627.14
2018-11-11T13:29:04.170Z,95638.17
2018-11-11T13:31:28.681Z,95636.27
2018-11-11T13:33:55.334Z,95639.94
2018-11-11T13:36:22.139Z,95629.30
2018-11-11T13:38:48.798Z,95636.65
2018-11-11T13:41:15.488Z,95639.06
2018-11-11T13:43:42.259Z,95639.06
2018-11-11T13:46:08.937Z,95635.39
2018-11-11T13:48:35.645Z,95633.49
2018-11-11T13:51:02.309Z,95635.90
2018-11-11T13:53:32.199Z,95630.48
2018-11-11T13:56:01.389Z,95630.96
2018-11-11T13:58:30.926Z,95636.69
2018-11-11T14:01:03.043Z,95636.69
2018-11-11T14:03:29.688Z,95643.16
2018-11-11T14:05:56.367Z,95646.70
2018-11-11T14:08:23.267Z,95642.94
2018-11-11T14:10:50.009Z,95648.89
2018-11-11T14:13:16.648Z,95649.56
2018-11-11T14:15:43.358Z,95651.05
2018-11-11T14:18:10.117Z,95650.20
2018-11-11T14:20:36.886Z,95652.83
2018-11-11T14:23:03.433Z,95654.88
2018-11-11T14:25:30.156Z,95650.73
2018-11-11T14:27:56.922Z,95652.39
2018-11-11T14:30:26.249Z,95654.80
2018-11-11T14:32:53.136Z,95653.56
2018-11-11T14:35:19.862Z,95652.30
2018-11-11T14:37:46.608Z,95656.86
2018-11-11T14:40:13.330Z,95653.69
2018-11-11T14:42:40.060Z,95650.80
2018-11-11T14:45:06.891Z,95649.55
2018-11-11T14:47:33.537Z,95654.73
2018-11-11T14:50:01.163Z,95657.77
2018-11-11T14:52:28.063Z,95656.03
2018-11-11T14:54:54.527Z,95663.92
2018-11-11T14:57:22.813Z,95669.62
2018-11-11T14:59:49.255Z,95660.84
2018-11-11T15:02:14.674Z,95668.48
2018-11-11T15:04:41.325Z,95669.49
2018-11-11T15:07:08.021Z,95674.08
2018-11-11T15:09:34.690Z,95679.78
2018-11-11T15:12:01.500Z,95681.94
2018-11-11T15:14:28.234Z,95690.95
2018-11-11T15:16:54.876Z,95692.09
2018-11-11T15:19:21.726Z,95692.34
2018-11-11T15:21:48.370Z,95692.34
2018-11-11T15:24:15.112Z,95701.24
2018-11-11T15:26:47.481Z,95696.08
2018-11-11T15:29:14.122Z,95697.19
2018-11-11T15:31:40.854Z,95692.69
2018-11-11T15:34:07.513Z,95690.25
2018-11-11T15:36:35.390Z,95702.09
2018-11-11T15:39:01.049Z,95704.62
2018-11-11T15:41:27.878Z,95704.23
2018-11-11T15:43:54.601Z,95702.44
2018-11-11T15:46:21.283Z,95701.55
2018-11-11T15:48:47.958Z,95703.83
2018-11-11T15:51:14.669Z,95708.64
2018-11-11T15:53:42.336Z,95706.23
2018-11-11T15:56:09.092Z,95714.47
2018-11-11T15:58:35.817Z,95714.47
2018-11-11T16:01:02.480Z,95715.35
2018-11-11T16:03:29.201Z,95718.52
2018-11-11T16:05:58.888Z,95718.14
2018-11-11T16:08:25.703Z,95723.70
2018-11-11T16:10:52.442Z,95718.16
2018-11-11T16:13:19.159Z,95730.70
2018-11-11T16:15:45.804Z,95730.70
2018-11-11T16:18:12.605Z,95735.73
2018-11-11T16:20:39.287Z,95741.71
2018-11-11T16:23:05.932Z,95743.86
2018-11-11T16:25:32.705Z,95748.93
2018-11-11T16:27:59.291Z,95748.58
2018-11-11T16:30:25.938Z,95747.31
2018-11-11T16:32:52.683Z,95756.27
2018-11-11T16:35:19.330Z,95752.12
2018-11-11T16:37:46.063Z,95752.75
2018-11-11T16:40:12.779Z,95751.00
2018-11-11T16:42:40.784Z,95746.83
2018-11-11T16:45:06.203Z,95743.51
2018-11-11T16:47:32.890Z,95740.72
2018-11-11T16:50:00.549Z,95743.44
2018-11-11T16:52:27.365Z,95744.16
2018-11-11T16:54:54.022Z,95749.61
2018-11-11T16:57:20.743Z,95755.30
2018-11-11T16:59:47.459Z,95751.79
2018-11-11T17:02:14.117Z,95753.44
2018-11-11T17:04:40.843Z,95754.20
2018-11-11T17:07:07.537Z,95753.17
2018-11-11T17:09:34.247Z,95761.05
2018-11-11T17:12:02.191Z,95759.76
2018-11-11T17:14:27.614Z,95762.92
2018-11-11T17:16:54.274Z,95759.66
2018-11-11T17:19:21.039Z,95760.29
2018-11-11T17:21:47.819Z,95759.66
2018-11-11T17:24:14.482Z,95758.41
2018-11-11T17:26:41.198Z,95761.96
2018-11-11T17:29:07.983Z,95759.78
2018-11-11T17:31:34.603Z,95772.34
2018-11-11T17:34:02.693Z,95767.50
2018-11-11T17:36:30.084Z,95776.52
2018-11-11T17:38:54.785Z,95778.52
2018-11-11T17:41:21.400Z,95780.44
2018-11-11T17:43:48.072Z,95784.96
2018-11-11T17:46:14.850Z,95786.63
2018-11-11T17:48:41.534Z,95788.78
2018-11-11T17:51:08.151Z,95793.84
2018-11-11T17:53:34.965Z,95804.35
2018-11-11T17:56:01.657Z,95806.63
2018-11-11T17:58:28.322Z,95807.77
2018-11-11T18:00:56.440Z,95807.00
2018-11-11T18:03:22.150Z,95811.97
2018-11-11T18:05:48.936Z,95815.63
2018-11-11T18:08:15.665Z,95803.48
2018-11-11T18:10:42.359Z,95820.05
2018-11-11T18:13:08.958Z,95821.83
2018-11-11T18:15:36.102Z,95829.57
2018-11-11T18:18:02.769Z,95831.45
2018-11-11T18:20:29.498Z,95831.58
2018-11-11T18:22:56.249Z,95833.11
2018-11-11T18:25:23.054Z,95834.61
2018-11-11T18:27:49.844Z,95830.44
2018-11-11T18:30:16.396Z,95831.97
2018-11-11T18:32:43.144Z,95835.77
2018-11-11T18:35:09.778Z,95832.09
2018-11-11T18:37:36.622Z,95826.02
2018-11-11T18:40:03.341Z,95839.19
2018-11-11T18:42:30.061Z,95843.49
2018-11-11T18:44:59.213Z,95844.14
2018-11-11T18:47:25.986Z,95852.72
2018-11-11T18:49:52.661Z,95851.48
2018-11-11T18:52:19.564Z,95855.89
2018-11-11T18:54:46.223Z,95858.92
2018-11-11T18:57:13.227Z,95857.81
2018-11-11T18:59:39.804Z,95865.02
2018-11-11T19:02:06.537Z,95862.36
2018-11-11T19:04:33.183Z,95872.48
2018-11-11T19:06:59.899Z,95876.02
2018-11-11T19:09:26.685Z,95873.89
2018-11-11T19:11:53.312Z,95883.77
2018-11-11T19:14:20.132Z,95886.20
2018-11-11T19:16:46.882Z,95888.52
2018-11-11T19:19:13.603Z,95884.64
2018-11-11T19:21:40.333Z,95887.66
2018-11-11T19:24:07.132Z,95885.38
2018-11-11T19:26:36.805Z,95895.23
2018-11-11T19:29:05.207Z,95894.82
2018-11-11T19:31:33.007Z,95895.44
2018-11-11T19:33:59.730Z,95900.23
2018-11-11T19:36:26.543Z,95897.08
2018-11-11T19:38:53.258Z,95895.31
2018-11-11T19:41:20.051Z,95903.00
2018-11-11T19:43:46.864Z,95899.98
2018-11-11T19:46:13.716Z,95899.58
2018-11-11T19:48:40.555Z,95901.09
2018-11-11T19:51:07.215Z,95901.48
2018-11-11T19:53:34.253Z,95897.42
2018-11-11T19:56:00.919Z,95908.82
2018-11-11T19:58:27.567Z,95900.73
2018-11-11T20:00:55.599Z,95898.95
2018-11-11T20:03:23.663Z,95897.30
2018-11-11T20:05:50.362Z,95899.85
2018-11-11T20:08:17.076Z,95898.47
2018-11-11T20:10:43.722Z,95906.18
2018-11-11T20:13:10.428Z,95910.11
2018-11-11T20:15:37.186Z,95907.84
2018-11-11T20:18:03.848Z,95904.16
2018-11-11T20:20:30.499Z,95906.56
2018-11-11T20:22:57.218Z,95911.12
2018-11-11T20:25:23.958Z,95912.38
2018-11-11T20:27:50.609Z,95917.33
2018-11-11T20:30:17.393Z,95928.59
2018-11-11T20:32:44.059Z,95918.84
2018-11-11T20:35:10.748Z,95919.73
2018-11-11T20:37:37.435Z,95921.27
2018-11-11T20:40:04.381Z,95930.48
2018-11-11T20:42:31.114Z,95932.27
2018-11-11T20:44:57.753Z,95925.82
2018-11-11T20:47:24.512Z,95923.03
2018-11-11T20:49:51.305Z,95920.88
2018-11-11T20:52:17.933Z,95930.37
2018-11-11T20:54:44.597Z,95927.34
2018-11-11T20:57:11.325Z,95926.70
2018-11-11T20:59:38.103Z,95919.50
2018-11-11T21:02:04.808Z,95930.98
2018-11-11T21:04:31.981Z,95921.52
2018-11-11T21:06:58.655Z,95922.41
2018-11-11T21:09:25.425Z,95921.27
2018-11-11T21:11:55.545Z,95922.55
2018-11-11T21:14:22.235Z,95923.17
2018-11-11T21:16:48.895Z,95919.50
2018-11-11T21:19:18.028Z,95926.59
2018-11-11T21:21:42.584Z,95924.56
2018-11-11T21:24:09.247Z,95927.48
2018-11-11T21:26:35.890Z,95933.67
2018-11-11T21:29:02.603Z,95930.39
2018-11-11T21:31:29.310Z,95939.75
2018-11-11T21:33:56.102Z,95944.17
2018-11-11T21:36:22.746Z,95947.70
2018-11-11T21:38:49.395Z,95948.84
2018-11-11T21:41:16.179Z,95957.84
2018-11-11T21:43:42.863Z,95964.80
2018-11-11T21:46:09.590Z,95968.31
2018-11-11T21:48:36.312Z,95973.88
2018-11-11T21:51:04.353Z,95976.95
2018-11-11T21:53:29.658Z,95982.38
2018-11-11T21:55:58.979Z,95987.69
2018-11-11T21:58:25.620Z,95983.14
2018-11-11T22:00:52.339Z,95986.55
2018-11-11T22:03:19.119Z,95987.19
2018-11-11T22:05:45.801Z,95996.03
2018-11-11T22:08:12.446Z,95994.39
2018-11-11T22:10:39.185Z,95987.05
2018-11-11T22:13:05.910Z,95990.33
2018-11-11T22:15:32.672Z,95989.21
2018-11-11T22:17:59.440Z,95989.57
2018-11-11T22:20:27.396Z,95992.73
2018-11-11T22:22:52.805Z,95992.87
2018-11-11T22:25:19.469Z,95992.74
2018-11-11T22:27:46.111Z,95998.69
2018-11-11T22:30:12.873Z,95995.14
2018-11-11T22:32:39.576Z,95992.75
2018-11-11T22:35:06.229Z,95991.73
2018-11-11T22:37:32.952Z,95995.77
2018-11-11T22:39:59.691Z,95997.30
2018-11-11T22:42:26.485Z,95997.30
2018-11-11T22:44:53.056Z,96000.58
2018-11-11T22:47:19.754Z,95991.98
2018-11-11T22:49:46.479Z,95997.55
2018-11-11T22:52:13.129Z,95993.25
2018-11-11T22:54:39.872Z,95994.78
2018-11-11T22:57:06.522Z,95998.05
2018-11-11T22:59:33.261Z,95996.03
2018-11-11T23:02:01.998Z,95998.81
2018-11-11T23:04:26.620Z,95997.94
2018-11-11T23:06:53.439Z,96004.98
2018-11-11T23:09:20.078Z,96006.16
2018-11-11T23:11:46.890Z,95998.56
2018-11-11T23:14:14.942Z,95995.88
2018-11-11T23:16:40.297Z,96004.22
2018-11-11T23:19:07.043Z,96004.22
2018-11-11T23:21:36.687Z,96012.31
2018-11-11T23:24:03.329Z,96014.09
2018-11-11T23:26:30.062Z,96019.00
2018-11-11T23:28:56.721Z,96021.02
2018-11-11T23:31:23.516Z,96025.95
2018-11-11T23:33:50.175Z,96020.77
2018-11-11T23:36:18.741Z,96024.18
2018-11-11T23:38:43.531Z,96020.15
2018-11-11T23:41:10.186Z,96016.46
2018-11-11T23:43:36.853Z,96017.09
2018-11-11T23:46:03.549Z,96013.19
2018-11-11T23:48:31.577Z,96010.52
2018-11-11T23:50:57.016Z,96013.58
2018-11-11T23:53:23.727Z,96017.38
2018-11-11T23:55:50.437Z,96020.89
2018-11-11T23:58:17.138Z,96012.30
